Terminal Aerodrome Forecast
Issued by NWS Billings, MT

Home | Current Version | Previous Version | Graphics & Text | Print | Product List | Glossary On
Versions: 1 2 3 4 5 6 7 8 9 10 11 12 13
000
FTUS45 KBYZ 250520
TAFMLS
TAF
KMLS 250520Z 2506/2606 04008KT P6SM VCSH SCT100 BKN250
     FM251400 04014KT P6SM VCSH SCT080 BKN150
     FM252300 04008KT P6SM SCT060 BKN120=

USA.gov is the U.S. government's official web portal to all federal, state and local government web resources and services.